الصفحة الرئيسية
METAR-TAF:

METAR-TAF

مطار :

مطار الكويت الدولي

مدينة الكويت, الكويت

دائرة عرض: 29-13N, خط طول: 047-59E, ارتفاع: 55 متر

مراقبة الطقس الحالي

تاريخ ووقت الإصدار 49 دقيقة قبل الساعة 01:00UTC
ريح 5 عقدة من الجنوب
درجة الحرارة 24°درجة مئوية
الرطوبة 65%
ضغط 1012 hPa
الرؤية: 8000 متر
سماء صافية

METAR: OKBK 170100Z 19005KT 8000 SKC 24/17 Q1012 NOSIG

زمن: 04:49 (01:49 UTC)

توقعات

تاريخ ووقت الإصدار 3ساعات و 4 دقيقة قبل الساعة 22:45UTC
التوقعات صالحة من17 الساعة 00 UTC إلى 18 الساعة 06 UTC
ريح 3 عقدةمن اتجاهات متغيرة
الرؤية: 6000 متر
مؤقت
من 17 الساعة 00 UTC إلى 17 الساعة 05 UTC
الرؤية: 3000 متر

TAF: OKBK 162245Z 1700/1806 VRB03KT 6000 NSC TEMPO 1700/1705 3000 BR/HZ

أرصاد الطقس والتوقعات من أكثر من 4000 مطار (تقارير الطقس للمطار METAR والتنبؤ بالطقس بالمطارTAF).

المحطات المتاحة هي النقط الصفراء والحمراء على الخريطة.

حرك المؤشر فوق النقطة لمعرفة اسم المحطة.

ثم انقر لمعرفة أرصاد وتوقعات الطقس.

لتغيير الخارطة: اضغط على الأزرار الخضراء مع رمز الصليب الأسود للتكبير. على الزر الأخضر مع شرطة للتصغير، أو على الأسهم الخضراء للخرائط المجاورة.


METAR-TAF: